Jekyll Island, Georgia
Current Conditions -  °F | °C
As of 5:53 PM on Wednesday 26 Nov 2014 (Local Time) from KSSI Reporting Station
Clear Clear  
Wind Chill: 55°   Ceiling: Unl
Heat Index: 55°   Visibility: 10mi
Dew Point: 39°   Wind: 5mph
Humidity: 55%   Direction: 260°W
Pressure: 30.13"   Gusts: NA
Location:  31.07°N, 81.41°W
Report Text: KSSI 262253Z AUTO 26004KT 10SM CLR 13/04 A3013 RMK AO2 SLP203 T01280039
Loading
Personal Weather Stations






























Interactive Weather Map New forecast layout! Learn more

10-Day Weather Forecast

Advertisements
Track Severe Weather on mobile